DTTF/GAF METAR and TAF weather

Enter ICAO airport designator
Station Type Date Time Source
DTTF METAR 2019/10/16 20:00 UTC NOAA

DTTF 162000Z 36006KT 9999 SCT026 23/13 Q1019 NOSIG


Station Type Date Time Source
DTTF Decoded METAR 2019/10/16 20:00 UTC NOAA

Gafsa, Tunisia (DTTF) 34-25N 008-49E 314M
Oct 16, 2019 - 04:00 PM EDT / 2019.10.16 2000 UTC
Wind: from the N (360 degrees) at 7 MPH (6 KT):0
Visibility: greater than 7 mile(s):0
Sky conditions: partly cloudy
Temperature: 73 F (23 C)
Dew Point: 55 F (13 C)
Relative Humidity: 53%
Pressure (altimeter): 30.09 in. Hg (1019 hPa)
ob: DTTF 162000Z 36006KT 9999 SCT026 23/13 Q1019 NOSIG
cycle: 20

Station Type Date Time Source
DTTF TAF 2018/07/22 13:33 UTC NOAA

TAF DTTF 221200Z 2213/2322 22010KT 7000 NSC PROB30
TEMPO 2216/2220 4000 -TSRA FEW026CB

Example: see airport list